Urb Rafael Bermudez, Puerto Rico
Current Conditions -  °F | °C
As of 10:01 AM on Monday 22 Dec 2014 (Local Time) from TJNR Reporting Station
Broken Clouds Broken Clouds  
Wind Chill: 83°   Ceiling: 2700
Heat Index: 89°   Visibility: 10mi
Dew Point: 73°   Wind: 7mph
Humidity: 72%   Direction: 90°E
Pressure: 30.1"   Gusts: NA
Location:  18.3304°N, 65.6573°W
Report Text: TJNR 221401Z AUTO 09006KT 10SM SCT021 BKN027 28/23 A3010 RMK AO2 T02830228
Loading
Personal Weather Stations






























Interactive Weather Map New forecast layout! Learn more

10-Day Weather Forecast

Advertisements
Track Severe Weather on mobile